Time;durP1;ratioP1;P1;durP2;ratioP2;P2;SDS_P1;SDS_P2;PMS_P1;PMS_P2;Temp;Humidity;BMP_temperature;BMP_pressure;BME280_temperature;BME280_humidity;BME280_pressure;Samples;Min_cycle;Max_cycle;Signal;HPM_P1;HPM_P2
2023/07/12 00:04:39;;;;;;;11.80;3.15;;;;;;;18.79;99.54;100834.78;10456710;28;20091;-73
2023/07/12 00:09:40;;;;;;;8.98;3.28;;;;;;;18.47;100.00;100829.09;10456467;28;20037;-72
2023/07/12 00:14:40;;;;;;;13.82;3.33;;;;;;;18.23;100.00;100837.53;10456040;28;20041;-72
2023/07/12 00:19:41;;;;;;;7.25;3.15;;;;;;;18.16;100.00;100834.13;10454377;28;20160;-71
2023/07/12 00:24:41;;;;;;;8.55;4.28;;;;;;;18.13;100.00;100804.47;10455465;28;20052;-70
2023/07/12 00:29:41;;;;;;;15.68;3.85;;;;;;;17.96;100.00;100781.72;10453996;28;20045;-71
2023/07/12 00:34:42;;;;;;;16.02;4.40;;;;;;;17.73;100.00;100777.19;10453332;28;20029;-71
2023/07/12 00:39:42;;;;;;;8.63;4.18;;;;;;;17.67;100.00;100789.97;10453947;28;20095;-70
2023/07/12 00:44:46;;;;;;;6.45;3.15;;;;;;;17.66;100.00;100793.81;10455417;28;20029;-72
2023/07/12 00:49:47;;;;;;;18.67;3.63;;;;;;;17.63;100.00;100788.81;10420803;28;20033;-71
2023/07/12 00:54:53;;;;;;;11.63;4.05;;;;;;;17.57;100.00;100789.81;10453645;28;20028;-71
2023/07/12 00:59:59;;;;;;;6.97;4.43;;;;;;;17.47;100.00;100803.31;10455017;28;20048;-70
2023/07/12 01:05:00;;;;;;;8.73;3.75;;;;;;;17.46;100.00;100796.19;10436580;28;20044;-71
2023/07/12 01:10:01;;;;;;;7.50;4.40;;;;;;;17.46;100.00;100818.09;10436316;28;20048;-71
2023/07/12 01:15:02;;;;;;;14.68;4.90;;;;;;;17.38;100.00;100835.72;10454436;28;20060;-71
2023/07/12 01:20:03;;;;;;;13.60;3.75;;;;;;;17.36;100.00;100832.41;10452585;28;20037;-71
2023/07/12 01:25:04;;;;;;;10.73;3.95;;;;;;;17.32;100.00;100812.88;10435631;28;20519;-72
2023/07/12 01:30:05;;;;;;;10.57;4.45;;;;;;;17.38;100.00;100802.88;10452198;28;20035;-71
2023/07/12 01:35:06;;;;;;;18.52;4.18;;;;;;;17.40;100.00;100804.28;10452558;28;20037;-71
2023/07/12 01:40:08;;;;;;;6.82;3.92;;;;;;;17.35;100.00;100804.19;10453732;28;20048;-70
2023/07/12 01:45:08;;;;;;;12.20;3.42;;;;;;;17.33;100.00;100797.31;10436356;28;20068;-71
2023/07/12 01:50:09;;;;;;;5.38;3.15;;;;;;;17.28;100.00;100783.53;10452018;28;20554;-71
2023/07/12 01:55:09;;;;;;;11.50;4.07;;;;;;;17.29;100.00;100790.66;10452572;28;20033;-73
2023/07/12 02:00:11;;;;;;;14.30;4.05;;;;;;;17.33;100.00;100778.97;10450679;28;20041;-71
2023/07/12 02:05:11;;;;;;;13.73;5.22;;;;;;;17.39;100.00;100779.91;10450493;28;20763;-71
2023/07/12 02:10:16;;;;;;;6.25;3.47;;;;;;;17.42;100.00;100783.00;10451064;28;20040;-71
2023/07/12 02:15:17;;;;;;;17.48;4.30;;;;;;;17.46;100.00;100787.97;10449786;28;20052;-71
2023/07/12 02:20:17;;;;;;;12.32;4.03;;;;;;;17.46;100.00;100798.91;10451147;28;20040;-71
2023/07/12 02:25:18;;;;;;;6.35;4.05;;;;;;;17.51;100.00;100796.25;10451675;28;20037;-71
2023/07/12 02:30:21;;;;;;;10.60;4.32;;;;;;;17.57;100.00;100798.00;10451281;28;20044;-72
2023/07/12 02:35:23;;;;;;;12.77;2.88;;;;;;;17.62;100.00;100793.47;10448977;28;20029;-72
2023/07/12 02:40:24;;;;;;;13.98;4.90;;;;;;;17.64;100.00;100790.47;10449060;28;20059;-73
2023/07/12 02:45:24;;;;;;;16.98;3.92;;;;;;;17.61;100.00;100800.03;10465817;28;20154;-72
2023/07/12 02:50:25;;;;;;;10.45;4.30;;;;;;;17.65;100.00;100805.84;10447873;28;20033;-71
2023/07/12 02:55:25;;;;;;;14.60;3.70;;;;;;;17.69;100.00;100790.56;10450040;28;20037;-72
2023/07/12 03:00:27;;;;;;;4.05;2.55;;;;;;;17.70;100.00;100799.59;10431879;28;20482;-73
2023/07/12 03:05:28;;;;;;;13.18;3.35;;;;;;;17.65;100.00;100792.16;10447728;28;20451;-71
2023/07/12 03:10:29;;;;;;;12.70;4.13;;;;;;;17.63;100.00;100789.63;10450192;28;20040;-72
2023/07/12 03:15:29;;;;;;;11.73;3.40;;;;;;;17.63;100.00;100795.13;10454243;28;20028;-72
2023/07/12 03:20:32;;;;;;;6.57;3.08;;;;;;;17.56;100.00;100799.94;10456590;28;20101;-71
2023/07/12 03:25:33;;;;;;;9.43;4.30;;;;;;;17.44;100.00;100797.25;10450504;28;20033;-72
2023/07/12 03:30:33;;;;;;;6.88;3.97;;;;;;;17.32;100.00;100804.66;10449707;28;20452;-71
2023/07/12 03:35:34;;;;;;;9.40;3.78;;;;;;;17.30;100.00;100801.38;10447734;28;20041;-71
2023/07/12 03:40:35;;;;;;;6.47;4.35;;;;;;;17.23;100.00;100806.16;10449424;28;20116;-72
2023/07/12 03:45:35;;;;;;;15.38;4.00;;;;;;;17.06;100.00;100806.09;10447772;28;20032;-72
2023/07/12 03:50:42;;;;;;;16.15;3.45;;;;;;;17.03;100.00;100803.81;10447673;28;20469;-72
2023/07/12 03:55:43;;;;;;;;;;;;;;;16.95;100.00;100805.06;10431872;28;20025;-72
2023/07/12 04:00:43;;;;;;;11.55;3.83;;;;;;;17.02;100.00;100815.03;10450589;28;20281;-72
2023/07/12 04:05:44;;;;;;;9.27;4.70;;;;;;;17.13;100.00;100809.53;10438713;28;20057;-72
2023/07/12 04:10:44;;;;;;;9.73;4.28;;;;;;;17.29;100.00;100816.09;10438247;28;20373;-72
2023/07/12 04:15:45;;;;;;;10.75;4.00;;;;;;;17.38;100.00;100822.84;10455541;28;20033;-72
2023/07/12 04:20:45;;;;;;;15.60;3.35;;;;;;;17.52;100.00;100826.16;10457938;28;20046;-72
2023/07/12 04:25:45;;;;;;;11.57;4.70;;;;;;;17.53;100.00;100843.41;10454332;28;20052;-72
2023/07/12 04:30:46;;;;;;;9.80;4.07;;;;;;;17.46;100.00;100851.75;10453878;28;20037;-73
2023/07/12 04:35:46;;;;;;;7.00;5.10;;;;;;;17.45;100.00;100844.59;10453050;28;20041;-73
2023/07/12 04:40:54;;;;;;;16.70;4.50;;;;;;;17.47;100.00;100856.16;10453870;28;20048;-72
2023/07/12 04:45:55;;;;;;;10.30;5.07;;;;;;;17.56;100.00;100856.59;10453944;28;20052;-72
2023/07/12 04:50:55;;;;;;;8.98;5.00;;;;;;;17.77;100.00;100847.72;10454972;28;20400;-72
2023/07/12 04:55:56;;;;;;;12.65;5.68;;;;;;;18.01;100.00;100853.06;10453078;28;20033;-72
2023/07/12 05:00:58;;;;;;;10.80;4.80;;;;;;;18.10;100.00;100854.31;10454078;28;20033;-73
2023/07/12 05:05:58;;;;;;;5.55;4.55;;;;;;;18.29;100.00;100863.13;10435643;28;20040;-73
2023/07/12 05:10:59;;;;;;;10.60;4.18;;;;;;;18.27;100.00;100854.31;10452111;28;20511;-73
2023/07/12 05:16:01;;;;;;;11.32;4.20;;;;;;;18.33;100.00;100856.88;10435949;28;20109;-73
2023/07/12 05:21:02;;;;;;;10.60;4.68;;;;;;;18.43;100.00;100869.06;10452528;28;20047;-74
2023/07/12 05:26:02;;;;;;;16.77;4.45;;;;;;;18.59;100.00;100868.22;10453620;28;20119;-74
2023/07/12 05:31:08;;;;;;;12.13;5.03;;;;;;;19.05;100.00;100869.75;10453378;28;20037;-75
2023/07/12 05:36:09;;;;;;;11.98;5.18;;;;;;;18.83;100.00;100881.78;10435295;28;20499;-72
2023/07/12 05:41:09;;;;;;;4.72;3.80;;;;;;;18.62;100.00;100872.38;10453235;28;20049;-73
2023/07/12 05:46:10;;;;;;;13.05;3.83;;;;;;;18.90;100.00;100880.50;10451619;28;20130;-72
2023/07/12 05:51:10;;;;;;;11.70;3.88;;;;;;;20.22;100.00;100877.59;10451522;28;20111;-74
2023/07/12 05:56:10;;;;;;;5.40;3.08;;;;;;;19.72;100.00;100895.28;10452003;28;20033;-73
2023/07/12 06:01:11;;;;;;;8.38;5.03;;;;;;;20.20;100.00;100897.09;10452032;28;20378;-73
2023/07/12 06:06:12;;;;;;;8.45;4.07;;;;;;;19.68;100.00;100897.69;10450203;28;20033;-74
2023/07/12 06:11:12;;;;;;;9.27;4.43;;;;;;;19.16;100.00;100909.13;10450337;28;20047;-74
2023/07/12 06:16:12;;;;;;;11.05;4.18;;;;;;;19.25;100.00;100909.53;10451398;28;20024;-74
2023/07/12 06:21:13;;;;;;;5.57;3.95;;;;;;;19.99;100.00;100917.25;10450857;28;20037;-74
2023/07/12 06:26:13;;;;;;;22.88;3.42;;;;;;;21.39;100.00;100921.59;10451520;28;20469;-73
2023/07/12 06:31:14;;;;;;;9.50;3.28;;;;;;;22.44;100.00;100910.25;10449576;28;20297;-74
2023/07/12 06:36:14;;;;;;;9.48;3.00;;;;;;;21.86;100.00;100915.13;10450116;28;20064;-74
2023/07/12 06:41:14;;;;;;;12.05;4.47;;;;;;;21.55;100.00;100926.06;10451102;28;20079;-73
2023/07/12 06:46:15;;;;;;;14.30;4.85;;;;;;;20.91;100.00;100920.78;10385348;28;20529;-72
2023/07/12 06:51:16;;;;;;;15.10;3.88;;;;;;;21.70;100.00;100932.75;10461153;28;20094;-73
2023/07/12 06:56:16;;;;;;;6.28;3.47;;;;;;;23.09;100.00;100937.22;10451849;28;20102;-74
2023/07/12 07:01:17;;;;;;;6.60;3.40;;;;;;;22.90;100.00;100945.25;10450025;28;20461;-74
2023/07/12 07:06:19;;;;;;;12.48;3.55;;;;;;;24.24;100.00;100949.94;10449463;28;20064;-77
2023/07/12 07:11:19;;;;;;;4.25;3.25;;;;;;;22.84;100.00;100952.69;10449693;28;20055;-75
2023/07/12 07:16:21;;;;;;;14.68;2.38;;;;;;;21.64;100.00;100966.88;10448159;28;20136;-75
2023/07/12 07:21:21;;;;;;;15.65;3.42;;;;;;;21.08;100.00;100976.47;10431508;28;20492;-73
2023/07/12 07:26:22;;;;;;;7.30;3.40;;;;;;;22.41;100.00;100970.69;10447883;28;20036;-74
2023/07/12 07:31:22;;;;;;;5.63;3.72;;;;;;;21.98;100.00;100986.56;10448941;28;20468;-73
2023/07/12 07:36:22;;;;;;;3.33;2.80;;;;;;;22.19;100.00;100990.22;10450766;28;20060;-66
2023/07/12 07:41:23;;;;;;;3.83;2.58;;;;;;;21.89;100.00;100990.94;10455285;28;20045;-65
2023/07/12 07:46:23;;;;;;;4.20;3.22;;;;;;;21.96;100.00;100997.03;10454693;28;20477;-64
2023/07/12 07:51:25;;;;;;;6.60;2.55;;;;;;;21.28;100.00;101019.00;10456278;28;20071;-67
2023/07/12 07:56:27;;;;;;;3.72;2.08;;;;;;;21.16;100.00;101029.41;10438426;28;20037;-68
2023/07/12 08:01:27;;;;;;;11.30;2.45;;;;;;;20.88;100.00;101039.66;10438296;28;20132;-68
2023/07/12 08:06:28;;;;;;;5.35;2.95;;;;;;;20.48;100.00;101040.91;10454733;28;20064;-67
2023/07/12 08:11:28;;;;;;;4.75;2.63;;;;;;;20.41;100.00;101043.88;10453862;28;20040;-65
2023/07/12 08:16:30;;;;;;;3.88;2.38;;;;;;;20.72;100.00;101054.38;10438912;28;20033;-71
2023/07/12 08:21:31;;;;;;;7.80;2.55;;;;;;;20.33;100.00;101055.34;10414539;28;20079;-73
2023/07/12 08:26:32;;;;;;;6.22;2.80;;;;;;;20.17;100.00;101062.59;10412224;28;20041;-73
2023/07/12 08:31:32;;;;;;;4.05;2.22;;;;;;;20.25;100.00;101072.31;10412037;28;20420;-73
2023/07/12 08:36:33;;;;;;;6.55;2.35;;;;;;;20.25;100.00;101074.22;10445525;28;20045;-80
2023/07/12 08:41:34;;;;;;;7.20;3.08;;;;;;;20.86;100.00;101078.44;10457238;28;20049;-81
2023/07/12 08:46:36;;;;;;;8.13;3.38;;;;;;;20.93;100.00;101089.28;10440721;28;20468;-77
2023/07/12 08:51:36;;;;;;;7.75;3.05;;;;;;;20.64;100.00;101097.81;10445140;28;20025;-79
2023/07/12 08:56:36;;;;;;;8.48;3.15;;;;;;;22.59;100.00;101088.81;10456261;28;20064;-80
2023/07/12 09:01:50;;;;;;;3.75;2.33;;;;;;;24.02;100.00;101085.09;10455302;28;20037;-75
2023/07/12 09:06:55;;;;;;;4.40;2.42;;;;;;;22.49;100.00;101097.91;10452681;28;20499;-72
2023/07/12 09:11:55;;;;;;;10.05;2.85;;;;;;;22.35;100.00;101098.69;10429892;28;20046;-74
2023/07/12 09:16:57;;;;;;;2.72;1.77;;;;;;;21.61;100.00;101116.25;10411467;28;20068;-73
2023/07/12 09:21:59;;;;;;;13.18;3.55;;;;;;;20.89;100.00;101118.38;10396557;28;20071;-71
2023/07/12 09:27:04;;;;;;;11.95;3.17;;;;;;;21.05;100.00;101119.34;10412849;28;20103;-71
2023/07/12 09:32:27;;;;;;;4.18;3.00;;;;;;;21.85;100.00;101128.50;10413374;28;20456;-70
2023/07/12 09:37:31;;;;;;;11.73;3.10;;;;;;;22.77;100.00;101122.50;10394959;28;20095;-72
2023/07/12 09:42:31;;;;;;;14.27;3.15;;;;;;;23.55;100.00;101130.56;10397091;28;20064;-77
2023/07/12 09:47:53;;;;;;;9.57;3.20;;;;;;;25.26;100.00;101117.31;10394055;28;20220;-69
2023/07/12 09:53:00;;;;;;;3.95;2.53;;;;;;;26.21;100.00;101124.06;10409470;28;20041;-69
2023/07/12 09:58:20;;;;;;;5.63;3.13;;;;;;;26.38;100.00;101121.59;10409244;28;20167;-70
2023/07/12 10:03:24;;;;;;;3.58;2.95;;;;;;;26.61;100.00;101106.06;10392911;28;20085;-73
2023/07/12 10:08:26;;;;;;;7.10;2.83;;;;;;;27.76;100.00;101110.22;10408547;28;20558;-70
2023/07/12 10:13:47;;;;;;;7.30;2.72;;;;;;;28.91;86.00;101118.34;10397474;28;20507;-74
2023/07/12 10:18:48;;;;;;;8.73;1.83;;;;;;;28.24;88.50;101109.84;10425470;28;20120;-74
2023/07/12 10:23:52;;;;;;;11.25;3.13;;;;;;;26.28;94.20;101123.72;10416956;28;20057;-70
2023/07/12 10:29:15;;;;;;;2.90;2.28;;;;;;;26.67;86.27;101129.00;10407589;28;20037;-71
2023/07/12 10:34:31;;;;;;;2.63;1.98;;;;;;;26.46;80.08;101133.19;10408428;28;20041;-67
2023/07/12 10:39:31;;;;;;;;;;;;;;;27.06;81.75;101130.66;10391211;28;20405;-70
2023/07/12 10:44:36;;;;;;;5.65;2.63;;;;;;;27.73;78.17;101122.00;10406916;28;19935;-76
2023/07/12 10:49:44;;;;;;;3.90;2.05;;;;;;;25.29;85.01;101139.72;10416950;28;20034;-74
2023/07/12 10:54:51;;;;;;;5.68;2.78;;;;;;;26.62;87.20;101146.59;10406771;28;20469;-72
2023/07/12 11:00:19;;;;;;;4.45;2.67;;;;;;;26.89;74.58;101157.00;10390783;28;20034;-73
2023/07/12 11:05:47;;;;;;;4.30;3.33;;;;;;;27.47;76.97;101150.28;10405316;28;20065;-67
2023/07/12 11:10:48;;;;;;;2.33;1.73;;;;;;;25.34;76.93;101168.53;10418892;28;20060;-67
2023/07/12 11:16:03;;;;;;;5.85;2.60;;;;;;;25.67;81.94;101177.94;10459649;28;20037;-66
2023/07/12 11:21:24;;;;;;;12.10;2.97;;;;;;;27.26;70.55;101172.03;10433756;28;20034;-65
2023/07/12 11:26:32;;;;;;;5.70;3.38;;;;;;;26.99;72.58;101169.09;10406803;28;20042;-76
2023/07/12 11:31:33;;;;;;;4.75;2.55;;;;;;;26.60;75.48;101173.00;10391166;28;20029;-76
2023/07/12 11:36:34;;;;;;;3.90;2.58;;;;;;;27.73;63.95;101172.06;10407537;28;20038;-76
2023/07/12 11:41:35;;;;;;;1.98;1.85;;;;;;;27.84;65.36;101172.72;10406795;28;20069;-74
2023/07/12 11:46:36;;;;;;;1.80;1.70;;;;;;;27.86;60.23;101174.09;10406263;28;20144;-73
2023/07/12 11:51:37;;;;;;;6.75;2.13;;;;;;;27.90;57.15;101179.84;10431097;28;20029;-71
2023/07/12 11:56:41;;;;;;;1.55;1.45;;;;;;;27.73;62.43;101172.91;10430721;28;20124;-73
2023/07/12 12:01:43;;;;;;;3.47;1.83;;;;;;;28.12;62.93;101181.94;10448828;28;20123;-73
2023/07/12 12:06:44;;;;;;;2.08;1.98;;;;;;;28.34;57.61;101182.03;10432269;28;20319;-73
2023/07/12 12:11:44;;;;;;;2.88;1.90;;;;;;;27.65;58.67;101186.69;10411241;28;20065;-72
2023/07/12 12:16:51;;;;;;;1.27;1.27;;;;;;;28.07;64.30;101188.41;10405138;28;20038;-70
2023/07/12 12:21:52;;;;;;;4.00;1.88;;;;;;;28.04;58.63;101177.91;10374796;28;20122;-71
2023/07/12 12:26:52;;;;;;;3.20;1.90;;;;;;;28.35;61.29;101183.66;10412760;28;20037;-76
2023/07/12 12:31:56;;;;;;;1.17;1.17;;;;;;;27.85;58.81;101193.84;10411893;28;20089;-71
2023/07/12 12:37:07;;;;;;;1.10;1.10;;;;;;;27.93;56.65;101187.59;10411512;28;20440;-70
2023/07/12 12:42:18;;;;;;;2.95;2.25;;;;;;;26.72;66.14;101192.03;10428304;28;20622;-72
2023/07/12 12:47:21;;;;;;;2.83;1.70;;;;;;;27.30;59.67;101189.75;10419929;28;20040;-71
2023/07/12 12:52:26;;;;;;;1.80;1.65;;;;;;;26.82;65.71;101186.31;10452662;28;20037;-70
2023/07/12 12:57:27;;;;;;;10.43;2.40;;;;;;;27.20;59.05;101180.78;10452902;28;20424;-70
2023/07/12 13:02:27;;;;;;;3.25;2.08;;;;;;;27.67;61.13;101170.53;10452789;28;20261;-70
2023/07/12 13:07:33;;;;;;;2.80;2.13;;;;;;;28.15;59.12;101184.09;10452284;28;20190;-77
2023/07/12 13:12:34;;;;;;;1.55;1.40;;;;;;;28.08;55.92;101184.50;10454363;28;20290;-70
2023/07/12 13:17:35;;;;;;;4.20;1.30;;;;;;;27.91;57.63;101184.28;10452812;28;20113;-70
2023/07/12 13:22:35;;;;;;;8.57;2.22;;;;;;;28.03;52.95;101190.16;10426857;28;20034;-71
2023/07/12 13:27:40;;;;;;;1.25;1.15;;;;;;;28.18;59.01;101195.44;10414855;28;20033;-71
2023/07/12 13:32:40;;;;;;;1.42;1.33;;;;;;;28.27;58.94;101198.31;10408602;28;20429;-72
2023/07/12 13:37:41;;;;;;;2.15;2.03;;;;;;;28.07;60.09;101210.69;10425875;28;20029;-67
2023/07/12 13:42:43;;;;;;;1.60;1.50;;;;;;;28.08;65.15;101203.16;10392155;28;20057;-69
2023/07/12 13:47:44;;;;;;;1.65;1.55;;;;;;;28.18;66.85;101202.97;10440472;28;20484;-70
2023/07/12 13:52:44;;;;;;;2.58;2.20;;;;;;;28.34;63.46;101209.06;10432689;28;20175;-72
2023/07/12 13:57:45;;;;;;;1.42;1.33;;;;;;;27.79;65.58;101212.59;10408174;28;20065;-70
2023/07/12 14:02:49;;;;;;;2.10;1.45;;;;;;;28.02;68.40;101205.22;10409196;28;20033;-72
2023/07/12 14:07:50;;;;;;;2.45;2.33;;;;;;;28.00;59.88;101213.06;10407803;28;20037;-74
2023/07/12 14:12:50;;;;;;;1.73;1.63;;;;;;;27.09;67.26;101224.53;10408521;28;20099;-71
2023/07/12 14:17:51;;;;;;;2.78;1.65;;;;;;;27.27;64.21;101218.19;10399503;28;20029;-70
2023/07/12 14:22:53;;;;;;;2.08;1.88;;;;;;;26.30;67.25;101225.00;10361290;28;20049;-75
2023/07/12 14:27:58;;;;;;;4.75;2.33;;;;;;;25.46;73.84;101230.81;10413250;28;20453;-73
2023/07/12 14:32:59;;;;;;;2.03;1.83;;;;;;;26.21;61.54;101221.22;10395338;28;20045;-74
2023/07/12 14:38:00;;;;;;;1.73;1.63;;;;;;;26.37;63.09;101225.47;10394860;28;20120;-74
2023/07/12 14:43:00;;;;;;;3.53;2.70;;;;;;;26.58;62.83;101228.88;10410228;28;20433;-74
2023/07/12 14:48:03;;;;;;;13.80;3.78;;;;;;;26.63;69.95;101222.41;10409471;28;20045;-76
2023/07/12 14:53:03;;;;;;;5.18;3.42;;;;;;;26.63;60.80;101216.84;10409116;28;20046;-74
2023/07/12 14:58:11;;;;;;;7.07;3.47;;;;;;;25.68;64.27;101216.44;10426014;28;20038;-73
2023/07/12 15:03:22;;;;;;;5.53;2.72;;;;;;;25.34;68.34;101212.88;10425221;28;20338;-73
2023/07/12 15:08:22;;;;;;;2.28;2.08;;;;;;;25.57;61.75;101208.53;10411247;28;20488;-76
2023/07/12 15:13:23;;;;;;;3.47;2.57;;;;;;;25.27;63.61;101211.28;10428734;28;20132;-74
2023/07/12 15:18:24;;;;;;;4.68;2.58;;;;;;;25.49;65.75;101226.59;10422770;28;20037;-74
2023/07/12 15:23:31;;;;;;;18.42;2.47;;;;;;;25.61;60.01;101238.16;10416608;28;20068;-76
2023/07/12 15:28:38;;;;;;;3.15;1.83;;;;;;;25.21;56.04;101231.81;10413663;28;20118;-75
2023/07/12 15:33:38;;;;;;;1.75;1.65;;;;;;;24.86;59.71;101230.06;10409521;28;20040;-74
2023/07/12 15:38:44;;;;;;;1.80;1.70;;;;;;;24.76;58.82;101230.97;10409506;28;20072;-75
2023/07/12 15:43:46;;;;;;;7.03;2.67;;;;;;;24.56;57.24;101223.53;10407416;28;20058;-74
2023/07/12 15:48:46;;;;;;;2.50;1.80;;;;;;;24.52;55.71;101228.00;10390325;28;20136;-73
2023/07/12 15:53:49;;;;;;;5.43;2.85;;;;;;;24.35;57.40;101228.31;10408686;28;20045;-75
2023/07/12 15:58:49;;;;;;;4.53;3.08;;;;;;;24.05;57.37;101231.97;10395621;28;20120;-73
2023/07/12 16:03:50;;;;;;;7.38;2.25;;;;;;;23.84;59.61;101225.69;10415841;28;20038;-74
2023/07/12 16:08:51;;;;;;;3.28;2.58;;;;;;;23.78;57.87;101215.72;10414883;28;20040;-74
2023/07/12 16:13:52;;;;;;;7.72;2.80;;;;;;;23.55;59.38;101210.75;10414935;28;20029;-74
2023/07/12 16:18:52;;;;;;;5.65;2.30;;;;;;;23.57;60.52;101211.28;10414094;28;20038;-73
2023/07/12 16:23:53;;;;;;;5.15;1.88;;;;;;;23.49;57.28;101211.84;10414982;28;20128;-73
2023/07/12 16:28:54;;;;;;;6.85;3.15;;;;;;;22.99;54.83;101211.50;10413594;28;20155;-75
2023/07/12 16:33:55;;;;;;;1.77;1.58;;;;;;;22.20;57.17;101221.66;10412832;28;20124;-72
2023/07/12 16:38:56;;;;;;;6.70;2.38;;;;;;;22.05;56.72;101230.66;10396844;28;20041;-75
2023/07/12 16:43:57;;;;;;;1.50;1.42;;;;;;;21.67;55.34;101217.97;10413625;28;20092;-74
2023/07/12 16:48:58;;;;;;;1.60;1.50;;;;;;;21.52;55.73;101221.44;10412541;28;20041;-73
2023/07/12 16:53:58;;;;;;;1.90;1.70;;;;;;;21.30;50.50;101210.47;10413480;28;20076;-75
2023/07/12 16:58:59;;;;;;;2.42;1.38;;;;;;;21.18;50.81;101217.22;10413737;28;20117;-74
2023/07/12 17:03:59;;;;;;;5.93;2.35;;;;;;;21.18;52.05;101217.22;10415951;28;20400;-74
2023/07/12 17:09:00;;;;;;;5.65;4.18;;;;;;;21.10;50.44;101213.03;10415347;28;20140;-75
2023/07/12 17:14:00;;;;;;;11.77;9.80;;;;;;;21.07;52.63;101216.31;10414700;28;20075;-75
2023/07/12 17:19:02;;;;;;;2.58;2.38;;;;;;;20.93;54.21;101215.03;10414116;28;20033;-73
2023/07/12 17:24:04;;;;;;;4.55;2.33;;;;;;;20.98;55.65;101207.69;10412861;28;20033;-73
2023/07/12 17:29:05;;;;;;;9.18;2.88;;;;;;;21.00;58.63;101211.00;10411537;28;20120;-73
2023/07/12 17:34:28;;;;;;;5.53;2.60;;;;;;;20.80;60.58;101221.78;10394645;28;20075;-74
2023/07/12 17:39:29;;;;;;;9.90;3.78;;;;;;;20.65;63.22;101215.03;10412588;28;20045;-76
2023/07/12 17:44:29;;;;;;;15.73;3.03;;;;;;;20.57;68.28;101228.41;10413155;28;20041;-74
2023/07/12 17:49:30;;;;;;;5.57;3.15;;;;;;;20.38;67.09;101225.09;10413429;28;20111;-74
2023/07/12 17:54:30;;;;;;;6.57;2.03;;;;;;;20.42;69.29;101218.00;10414224;28;20143;-73
2023/07/12 17:59:30;;;;;;;4.53;2.65;;;;;;;20.57;68.23;101217.41;10413402;28;20095;-72
2023/07/12 18:04:31;;;;;;;7.57;3.05;;;;;;;20.49;70.04;101210.41;10411788;28;20029;-74
2023/07/12 18:09:32;;;;;;;4.57;2.80;;;;;;;20.29;70.93;101215.63;10412621;28;20037;-74
2023/07/12 18:14:33;;;;;;;7.63;3.03;;;;;;;20.11;74.82;101214.84;10412183;28;20041;-75
2023/07/12 18:19:33;;;;;;;24.17;3.33;;;;;;;20.03;76.79;101212.53;10411348;28;20029;-74
2023/07/12 18:24:33;;;;;;;6.40;2.85;;;;;;;19.89;79.14;101217.56;10412103;28;20114;-74
2023/07/12 18:29:34;;;;;;;14.88;3.78;;;;;;;19.82;80.09;101222.41;10411974;28;20124;-76
2023/07/12 18:34:34;;;;;;;21.15;5.20;;;;;;;19.82;81.39;101211.41;10410775;28;20151;-75
2023/07/12 18:39:35;;;;;;;15.68;3.63;;;;;;;19.72;86.82;101228.56;10395157;28;20106;-76
2023/07/12 18:44:35;;;;;;;12.10;3.33;;;;;;;19.61;87.95;101231.34;10351655;28;20140;-72
2023/07/12 18:49:35;;;;;;;14.40;4.40;;;;;;;19.32;91.91;101233.34;10367414;28;20041;-75
2023/07/12 18:54:36;;;;;;;8.90;2.58;;;;;;;19.04;95.64;101235.03;10379920;28;20037;-74
2023/07/12 18:59:36;;;;;;;8.52;4.47;;;;;;;18.95;95.35;101231.00;10367217;28;20041;-75
2023/07/12 19:04:37;;;;;;;19.63;4.38;;;;;;;18.92;94.19;101234.22;10367535;28;20474;-78
2023/07/12 19:09:38;;;;;;;6.45;2.85;;;;;;;18.94;95.08;101234.84;10350628;28;20030;-73
2023/07/12 19:14:38;;;;;;;7.38;3.22;;;;;;;18.88;99.20;101239.38;10366930;28;20449;-65
2023/07/12 19:19:48;;;;;;;11.88;3.90;;;;;;;18.91;98.15;101243.56;10364522;28;20033;-72
2023/07/12 19:24:54;;;;;;;14.13;4.22;;;;;;;18.83;99.70;101247.53;10351097;28;20137;-70
2023/07/12 19:29:54;;;;;;;10.93;3.97;;;;;;;18.75;100.00;101254.22;10366345;28;20080;-70
2023/07/12 19:34:54;;;;;;;8.95;3.63;;;;;;;18.76;100.00;101252.31;10389324;28;20069;-69
2023/07/12 19:39:55;;;;;;;7.55;3.47;;;;;;;18.65;100.00;101255.91;10375277;28;20120;-74
2023/07/12 19:44:55;;;;;;;16.50;4.78;;;;;;;18.61;99.00;101266.53;10375013;28;20045;-74
2023/07/12 19:49:56;;;;;;;28.63;3.30;;;;;;;18.57;100.00;101277.16;10375171;28;20132;-72
2023/07/12 19:54:57;;;;;;;8.40;3.50;;;;;;;18.54;100.00;101272.16;10400577;28;20046;-73
2023/07/12 19:59:58;;;;;;;8.30;3.45;;;;;;;18.68;100.00;101286.41;10416095;28;20037;-71
2023/07/12 20:04:58;;;;;;;18.77;3.55;;;;;;;18.73;100.00;101278.34;10415076;28;20053;-74
2023/07/12 20:09:59;;;;;;;9.27;4.68;;;;;;;18.74;99.74;101293.72;10415133;28;20068;-74
2023/07/12 20:14:59;;;;;;;15.43;3.13;;;;;;;18.66;100.00;101279.50;10380146;28;20124;-73
2023/07/12 20:20:00;;;;;;;14.57;3.42;;;;;;;18.60;100.00;101292.25;10396673;28;20072;-75
2023/07/12 20:25:01;;;;;;;13.23;4.13;;;;;;;18.61;100.00;101298.63;10414558;28;20378;-72
2023/07/12 20:30:04;;;;;;;8.40;3.70;;;;;;;18.56;100.00;101293.84;10390599;28;20034;-74
2023/07/12 20:35:05;;;;;;;7.28;3.95;;;;;;;18.51;100.00;101289.09;10402707;28;20151;-74
2023/07/12 20:40:07;;;;;;;4.65;3.80;;;;;;;18.55;100.00;101300.41;10430822;28;20138;-77
2023/07/12 20:45:08;;;;;;;15.80;3.55;;;;;;;18.55;100.00;101300.41;10414941;28;20046;-72
2023/07/12 20:50:08;;;;;;;9.70;3.47;;;;;;;18.43;100.00;101302.31;10413067;28;20536;-74
2023/07/12 20:55:09;;;;;;;10.60;4.55;;;;;;;18.45;100.00;101306.50;10413647;28;20045;-73
2023/07/12 21:00:10;;;;;;;7.95;4.82;;;;;;;18.53;100.00;101302.53;10388051;28;20038;-74
2023/07/12 21:05:14;;;;;;;6.35;3.75;;;;;;;18.68;100.00;101300.13;10371047;28;20473;-75
2023/07/12 21:10:16;;;;;;;10.27;4.80;;;;;;;18.71;100.00;101305.13;10372032;28;20143;-75
2023/07/12 21:15:17;;;;;;;17.65;3.78;;;;;;;18.79;100.00;101304.81;10388221;28;20026;-75
2023/07/12 21:20:18;;;;;;;17.38;4.38;;;;;;;18.76;100.00;101299.81;10373129;28;20033;-73
2023/07/12 21:25:18;;;;;;;14.45;5.22;;;;;;;18.79;100.00;101303.94;10372480;28;20038;-75
2023/07/12 21:30:19;;;;;;;14.00;4.78;;;;;;;18.81;100.00;101293.56;10387437;28;20034;-72
2023/07/12 21:35:21;;;;;;;21.88;5.07;;;;;;;18.77;100.00;101295.16;10370410;28;20045;-72
2023/07/12 21:40:22;;;;;;;12.20;4.50;;;;;;;18.83;100.00;101307.06;10375869;28;20085;-74
2023/07/12 21:45:22;;;;;;;8.57;4.25;;;;;;;18.79;100.00;101299.31;10377099;28;20080;-75
2023/07/12 21:50:23;;;;;;;10.07;4.30;;;;;;;18.67;100.00;101303.13;10378017;28;20076;-71
2023/07/12 21:55:23;;;;;;;21.05;6.55;;;;;;;18.64;100.00;101293.47;10371929;28;20053;-73
2023/07/12 22:00:24;;;;;;;26.33;5.32;;;;;;;18.61;100.00;101302.19;10369884;28;20045;-76
2023/07/12 22:05:25;;;;;;;14.63;3.17;;;;;;;18.55;100.00;101301.22;10369023;28;20113;-73
2023/07/12 22:10:27;;;;;;;19.88;4.70;;;;;;;18.51;100.00;101305.53;10370369;28;20049;-73
2023/07/12 22:15:28;;;;;;;14.98;4.55;;;;;;;18.21;100.00;101302.91;10388600;28;20556;-73
2023/07/12 22:20:28;;;;;;;8.52;3.55;;;;;;;18.08;100.00;101294.94;10371732;28;20168;-74
2023/07/12 22:25:28;;;;;;;14.00;4.93;;;;;;;18.10;100.00;101301.84;10368679;28;20053;-73
2023/07/12 22:30:31;;;;;;;9.63;4.00;;;;;;;18.24;100.00;101299.69;10370215;28;20046;-73
2023/07/12 22:35:31;;;;;;;7.43;4.05;;;;;;;18.41;100.00;101307.19;10367407;28;20132;-73
2023/07/12 22:40:32;;;;;;;14.63;5.22;;;;;;;18.45;100.00;101306.50;10369198;28;20152;-73
2023/07/12 22:45:32;;;;;;;13.27;5.63;;;;;;;18.37;100.00;101306.84;10383852;28;20066;-73
2023/07/12 22:50:34;;;;;;;7.88;3.88;;;;;;;18.21;100.00;101311.13;10351158;28;20473;-72
2023/07/12 22:55:34;;;;;;;11.93;4.47;;;;;;;18.26;100.00;101311.28;10368219;28;20037;-73